Time;durP1;ratioP1;P1;durP2;ratioP2;P2;SDS_P1;SDS_P2;PMS_P1;PMS_P2;Temp;Humidity;BMP_temperature;BMP_pressure;BME280_temperature;BME280_humidity;BME280_pressure;Samples;Min_cycle;Max_cycle;Signal;HPM_P1;HPM_P2
2022/09/25 00:01:14;;;;;;;10.95;2.30;;;;;;;11.42;96.02;101198.66;10396889;28;20050;-80
2022/09/25 00:06:22;;;;;;;15.80;2.08;;;;;;;11.38;95.84;101203.78;10402467;28;20133;-80
2022/09/25 00:11:31;;;;;;;9.00;1.98;;;;;;;11.38;95.81;101196.84;10378132;28;20058;-80
2022/09/25 00:16:33;;;;;;;12.07;2.10;;;;;;;11.34;95.43;101200.25;10405119;28;20045;-79
2022/09/25 00:21:36;;;;;;;13.15;2.47;;;;;;;11.34;95.72;101197.63;10407861;28;20053;-79
2022/09/25 00:26:40;;;;;;;14.65;2.00;;;;;;;11.31;95.67;101197.56;10407076;28;20068;-80
2022/09/25 00:31:42;;;;;;;5.72;2.05;;;;;;;11.29;95.75;101200.16;10389208;28;20610;-79
2022/09/25 00:36:44;;;;;;;9.90;1.60;;;;;;;11.29;95.79;101200.16;10406454;28;20157;-80
2022/09/25 00:41:45;;;;;;;9.93;1.35;;;;;;;11.28;95.56;101201.00;10389299;28;20037;-80
2022/09/25 00:46:47;;;;;;;12.23;2.33;;;;;;;11.28;95.52;101193.13;10402551;28;20049;-79
2022/09/25 00:52:00;;;;;;;10.07;1.45;;;;;;;11.25;95.51;101195.69;10398338;28;20053;-79
2022/09/25 00:57:07;;;;;;;14.63;2.17;;;;;;;11.24;95.37;101193.91;10398526;28;20100;-79
2022/09/25 01:02:13;;;;;;;8.55;1.70;;;;;;;11.24;95.43;101203.53;10395033;28;20065;-79
2022/09/25 01:07:15;;;;;;;8.85;1.50;;;;;;;11.25;95.51;101202.69;10405236;28;20064;-79
2022/09/25 01:12:17;;;;;;;8.18;1.70;;;;;;;11.24;95.33;101199.16;10405803;28;20045;-79
2022/09/25 01:17:28;;;;;;;14.15;1.90;;;;;;;11.24;95.30;101203.53;10404905;28;20117;-80
2022/09/25 01:22:48;;;;;;;14.60;2.28;;;;;;;11.19;95.27;101194.69;10405357;28;20129;-80
2022/09/25 01:28:18;;;;;;;9.70;1.80;;;;;;;11.18;95.29;101199.03;10404899;28;20049;-80
2022/09/25 01:33:35;;;;;;;7.40;1.40;;;;;;;11.20;95.24;101201.69;10399482;28;20053;-80
2022/09/25 01:38:44;;;;;;;5.28;1.55;;;;;;;11.16;95.19;101194.63;10399904;28;20133;-79
2022/09/25 01:44:12;;;;;;;11.20;1.85;;;;;;;11.10;95.22;101196.25;10403783;28;20049;-80
2022/09/25 01:49:37;;;;;;;15.38;1.58;;;;;;;11.09;95.19;101199.75;10375369;28;20053;-80
2022/09/25 01:54:47;;;;;;;12.30;1.83;;;;;;;11.09;95.46;101199.75;10381556;28;20053;-79
2022/09/25 01:59:59;;;;;;;6.15;1.10;;;;;;;11.09;95.04;101194.50;10398671;28;20056;-80
2022/09/25 02:05:11;;;;;;;15.20;1.50;;;;;;;11.09;95.11;101204.06;10379675;28;20402;-80
2022/09/25 02:10:22;;;;;;;8.20;1.60;;;;;;;11.06;95.19;101194.41;10374332;28;20080;-79
2022/09/25 02:15:34;;;;;;;11.80;1.33;;;;;;;11.04;95.21;101193.50;10385368;28;20068;-79
2022/09/25 02:20:36;;;;;;;7.78;1.75;;;;;;;10.99;95.38;101197.75;10398943;28;20445;-80
2022/09/25 02:26:03;;;;;;;11.45;1.50;;;;;;;10.97;95.27;101194.22;10385629;28;20056;-80
2022/09/25 02:31:09;;;;;;;7.25;1.30;;;;;;;10.87;95.14;101187.91;10381956;28;20049;-79
2022/09/25 02:36:22;;;;;;;9.27;1.75;;;;;;;10.86;95.19;101193.09;10397626;28;20130;-79
2022/09/25 02:41:27;;;;;;;11.73;1.67;;;;;;;10.77;95.14;101189.41;10396667;28;20061;-79
2022/09/25 02:47:06;;;;;;;9.48;1.60;;;;;;;10.73;95.01;101194.53;10400446;28;20053;-79
2022/09/25 02:52:31;;;;;;;14.10;1.83;;;;;;;10.68;94.79;101199.69;10358368;28;20051;-79
2022/09/25 02:57:47;;;;;;;12.52;1.60;;;;;;;10.63;94.68;101197.78;10395011;28;20054;-79
2022/09/25 03:02:54;;;;;;;14.57;1.27;;;;;;;10.59;94.82;101196.84;10379758;28;20045;-79
2022/09/25 03:13:30;;;;;;;13.85;2.08;;;;;;;10.55;94.77;101190.66;10391226;28;20057;-80
2022/09/25 03:18:31;;;;;;;7.43;1.58;;;;;;;10.52;94.71;101194.94;10399723;28;20449;-80
2022/09/25 03:23:33;;;;;;;11.40;1.40;;;;;;;10.44;94.39;101195.63;10382933;28;20073;-79
2022/09/25 03:28:34;;;;;;;6.68;1.30;;;;;;;10.36;94.38;101191.94;10393272;28;20056;-79
2022/09/25 03:33:39;;;;;;;9.25;1.40;;;;;;;10.27;94.12;101189.09;10375590;28;20065;-77
2022/09/25 03:38:42;;;;;;;6.45;1.27;;;;;;;10.21;94.24;101194.16;10365891;28;20230;-77
2022/09/25 03:43:45;;;;;;;9.90;1.73;;;;;;;10.09;94.00;101192.13;10392504;28;20128;-77
2022/09/25 03:48:47;;;;;;;9.18;1.30;;;;;;;10.04;94.17;101189.38;10394554;28;20123;-76
2022/09/25 03:53:50;;;;;;;6.22;1.50;;;;;;;9.97;94.07;101192.69;10386761;28;20053;-77
2022/09/25 03:58:53;;;;;;;17.38;2.25;;;;;;;9.95;93.97;101189.13;10368818;28;20467;-77
2022/09/25 04:03:56;;;;;;;9.95;1.77;;;;;;;9.91;94.13;101185.56;10389902;28;20222;-76
2022/09/25 04:08:58;;;;;;;3.70;1.10;;;;;;;9.88;94.19;101184.59;10390867;28;20505;-77
2022/09/25 04:14:00;;;;;;;12.07;2.00;;;;;;;9.86;94.09;101183.66;10389984;28;20709;-77
2022/09/25 04:19:02;;;;;;;10.20;1.60;;;;;;;9.83;94.33;101186.19;10377919;28;20627;-77
2022/09/25 04:29:24;;;;;;;12.18;1.73;;;;;;;9.78;94.28;101182.59;10355931;28;20045;-77
2022/09/25 04:34:25;;;;;;;11.93;1.40;;;;;;;9.80;94.28;101191.34;10375232;28;20061;-77
2022/09/25 04:39:27;;;;;;;14.73;2.20;;;;;;;9.83;94.35;101186.19;10383493;28;20046;-77
2022/09/25 04:44:29;;;;;;;11.05;1.77;;;;;;;9.85;94.48;101189.75;10395297;28;20041;-76
2022/09/25 04:49:32;;;;;;;6.63;1.33;;;;;;;9.83;94.40;101180.97;10398974;28;20508;-76
2022/09/25 04:54:35;;;;;;;7.88;1.30;;;;;;;9.83;94.40;101186.19;10390027;28;20053;-77
2022/09/25 04:59:36;;;;;;;9.63;1.58;;;;;;;9.81;94.49;101183.53;10396366;28;20143;-76
2022/09/25 05:04:38;;;;;;;12.95;1.58;;;;;;;9.82;94.43;101180.09;10394380;28;20069;-77
2022/09/25 05:09:40;;;;;;;13.07;1.95;;;;;;;9.82;94.42;101176.59;10382052;28;20144;-77
2022/09/25 05:14:42;;;;;;;7.80;1.70;;;;;;;9.79;94.43;101168.63;10373032;28;20054;-77
2022/09/25 05:19:44;;;;;;;19.85;1.60;;;;;;;9.79;94.58;101169.53;10354615;28;20045;-76
2022/09/25 05:24:46;;;;;;;9.82;1.88;;;;;;;9.77;94.52;101167.72;10395810;28;20560;-76
2022/09/25 05:29:48;;;;;;;15.23;1.63;;;;;;;9.73;94.58;101178.09;10384870;28;20464;-76
2022/09/25 05:34:50;;;;;;;10.35;1.67;;;;;;;9.79;94.63;101179.09;10393970;28;20044;-77
2022/09/25 05:39:53;;;;;;;13.45;1.98;;;;;;;9.75;94.59;101187.72;10382999;28;20049;-76
2022/09/25 05:44:55;;;;;;;11.88;2.00;;;;;;;9.71;94.44;101185.03;10372733;28;20137;-77
2022/09/25 05:49:57;;;;;;;9.75;2.00;;;;;;;9.66;94.50;101181.41;10388191;28;20513;-77
2022/09/25 05:54:59;;;;;;;11.35;1.80;;;;;;;9.65;94.26;101184.88;10383949;28;20049;-77
2022/09/25 06:00:04;;;;;;;5.75;2.05;;;;;;;9.54;94.20;101189.78;10354775;28;20053;-77
2022/09/25 06:05:12;;;;;;;5.78;1.85;;;;;;;9.55;94.20;101188.94;10381880;28;20046;-76
2022/09/25 06:10:13;;;;;;;13.23;2.63;;;;;;;9.60;94.27;101189.06;10383918;28;20049;-77
2022/09/25 06:15:15;;;;;;;6.20;1.77;;;;;;;9.61;94.09;101189.94;10393169;28;20524;-77
2022/09/25 06:20:19;;;;;;;5.25;1.48;;;;;;;9.69;94.01;101181.47;10390242;28;20049;-77
2022/09/25 06:25:24;;;;;;;7.93;2.30;;;;;;;9.74;94.02;101178.97;10364344;28;20125;-75
2022/09/25 06:30:35;;;;;;;6.97;1.70;;;;;;;10.04;94.14;101181.53;10389781;28;20045;-76
2022/09/25 06:35:44;;;;;;;13.20;2.50;;;;;;;10.34;94.14;101192.75;10385998;28;20046;-76
2022/09/25 06:40:45;;;;;;;9.77;1.73;;;;;;;10.66;94.07;101183.06;10372743;28;20409;-77
2022/09/25 06:45:48;;;;;;;10.38;2.15;;;;;;;10.91;93.72;101183.59;10385052;28;20049;-77
2022/09/25 06:50:53;;;;;;;7.78;1.30;;;;;;;11.05;93.42;101186.50;10393647;28;20136;-77
2022/09/25 06:55:58;;;;;;;5.50;1.23;;;;;;;11.10;93.24;101190.13;10365992;28;20099;-77
2022/09/25 07:00:59;;;;;;;13.15;1.80;;;;;;;11.07;93.18;101190.94;10384848;28;20154;-77
2022/09/25 07:06:09;;;;;;;7.10;1.40;;;;;;;11.09;93.04;101198.84;10372789;28;20548;-77
2022/09/25 07:11:15;;;;;;;9.10;1.33;;;;;;;11.09;93.24;101199.75;10372659;28;20045;-77
2022/09/25 07:16:19;;;;;;;9.85;1.55;;;;;;;11.10;93.14;101195.38;10353775;28;20221;-77
2022/09/25 07:21:23;;;;;;;8.50;1.42;;;;;;;11.16;92.97;101205.97;10396673;28;20055;-77
2022/09/25 07:26:28;;;;;;;8.38;1.73;;;;;;;11.27;93.37;101203.59;10390302;28;20053;-77
2022/09/25 07:31:32;;;;;;;9.82;1.70;;;;;;;11.38;93.19;101206.41;10389809;28;20076;-77
2022/09/25 07:36:37;;;;;;;14.13;2.03;;;;;;;11.58;93.10;101209.47;10399111;28;20670;-77
2022/09/25 07:41:39;;;;;;;11.13;2.08;;;;;;;11.84;93.11;101207.31;10393920;28;20132;-77
2022/09/25 07:46:43;;;;;;;8.95;1.90;;;;;;;12.50;93.00;101207.63;10398509;28;20054;-77
2022/09/25 07:51:45;;;;;;;8.70;1.85;;;;;;;14.05;91.96;101208.75;10377526;28;20096;-76
2022/09/25 07:56:47;;;;;;;8.27;1.98;;;;;;;14.49;88.93;101199.44;10384514;28;20056;-77
2022/09/25 08:01:48;;;;;;;9.05;1.75;;;;;;;14.76;86.86;101200.56;10381702;28;20061;-76
2022/09/25 08:06:58;;;;;;;8.15;1.58;;;;;;;14.13;85.57;101206.19;10384975;28;20087;-76
2022/09/25 08:12:01;;;;;;;12.15;1.60;;;;;;;13.71;85.75;101208.38;10392830;28;20140;-77
2022/09/25 08:17:03;;;;;;;7.05;1.83;;;;;;;13.55;85.95;101215.22;10391817;28;20056;-77
2022/09/25 08:22:04;;;;;;;9.60;1.70;;;;;;;13.40;86.25;101197.50;10389759;28;20053;-76
2022/09/25 08:27:06;;;;;;;11.00;2.05;;;;;;;13.47;86.47;101203.72;10349057;28;20060;-75
2022/09/25 08:32:09;;;;;;;9.40;1.58;;;;;;;13.47;86.36;101203.72;10354768;28;20537;-76
2022/09/25 08:37:11;;;;;;;9.32;1.48;;;;;;;13.15;85.97;101205.91;10393558;28;20049;-76
2022/09/25 08:42:19;;;;;;;9.07;2.00;;;;;;;13.93;86.70;101204.25;10387726;28;20463;-76
2022/09/25 08:52:48;;;;;;;5.32;1.33;;;;;;;-147.53;100.00;57128.34;10390084;28;20088;-76
2022/09/25 08:57:54;;;;;;;8.82;1.40;;;;;;;-147.53;100.00;57128.34;10366251;28;20045;-76
2022/09/25 09:02:57;;;;;;;8.50;1.50;;;;;;;-147.53;100.00;57128.34;10382520;28;20048;-77
2022/09/25 09:08:18;;;;;;;7.25;1.02;;;;;;;17.75;75.99;101213.03;10378880;28;20057;-76
2022/09/25 09:13:29;;;;;;;5.05;0.90;;;;;;;17.42;74.47;101225.56;10390192;28;20119;-76
2022/09/25 09:18:41;;;;;;;10.23;1.05;;;;;;;17.18;73.18;101222.13;10386478;28;20060;-78
2022/09/25 09:24:26;;;;;;;7.45;1.10;;;;;;;17.93;72.57;101212.94;10394323;28;20516;-77
2022/09/25 09:29:40;;;;;;;6.10;0.98;;;;;;;18.38;71.06;101213.50;10388037;28;20484;-77
2022/09/25 09:35:19;;;;;;;4.97;1.05;;;;;;;17.30;70.98;101213.25;10391230;28;20041;-78
2022/09/25 09:40:26;;;;;;;7.95;1.10;;;;;;;17.30;70.98;101213.25;10388865;28;20053;-78
2022/09/25 09:45:38;;;;;;;8.23;1.15;;;;;;;15.89;71.67;101207.19;10398118;28;20052;-77
2022/09/25 09:50:51;;;;;;;6.68;1.58;;;;;;;16.07;72.69;101203.69;10389913;28;20053;-78
2022/09/25 09:56:03;;;;;;;4.43;0.77;;;;;;;16.40;71.90;101197.53;10392547;28;20124;-78
2022/09/25 10:01:10;;;;;;;9.82;1.52;;;;;;;15.93;71.57;101208.97;10386883;28;20057;-78
2022/09/25 10:06:42;;;;;;;10.05;1.23;;;;;;;15.18;72.90;101201.66;10374371;28;20494;-76
2022/09/25 10:11:48;;;;;;;6.30;0.80;;;;;;;14.90;74.25;101195.34;10380787;28;20081;-77
2022/09/25 10:16:51;;;;;;;7.10;1.00;;;;;;;14.83;75.44;101197.06;10379152;28;20056;-77
2022/09/25 10:22:13;;;;;;;5.47;0.75;;;;;;;14.97;75.91;101195.41;10394529;28;20049;-77
2022/09/25 10:27:29;;;;;;;4.43;0.88;;;;;;;15.24;76.09;101187.59;10380287;28;20057;-78
2022/09/25 10:32:47;;;;;;;9.15;1.02;;;;;;;15.42;75.57;101184.16;10394023;28;20540;-77
2022/09/25 10:37:56;;;;;;;4.60;0.90;;;;;;;15.37;75.33;101203.50;10372119;28;20073;-77
2022/09/25 10:43:24;;;;;;;12.68;1.10;;;;;;;15.23;75.10;101193.78;10384859;28;20042;-76
2022/09/25 10:54:14;;;;;;;5.20;1.30;;;;;;;15.18;75.43;101188.47;10381105;28;20060;-77
2022/09/25 10:59:19;;;;;;;4.15;1.30;;;;;;;15.24;75.37;101190.22;10393769;28;20049;-77
2022/09/25 11:04:33;;;;;;;14.43;1.80;;;;;;;15.17;74.39;101195.47;10383493;28;20053;-77
2022/09/25 11:09:43;;;;;;;6.63;0.85;;;;;;;15.36;73.47;101185.03;10357407;28;20041;-77
2022/09/25 11:14:57;;;;;;;4.18;0.90;;;;;;;15.48;72.61;101198.25;10401688;28;20033;-75
2022/09/25 11:20:15;;;;;;;3.80;0.90;;;;;;;15.53;71.05;101190.34;10401369;28;20049;-78
2022/09/25 11:25:26;;;;;;;5.32;0.60;;;;;;;15.76;70.30;101186.88;10399825;28;20517;-77
2022/09/25 11:30:38;;;;;;;3.25;0.70;;;;;;;16.71;67.90;101179.00;10379631;28;20531;-79
2022/09/25 11:35:59;;;;;;;5.47;0.70;;;;;;;17.17;65.57;101177.13;10354588;28;20054;-77
2022/09/25 11:41:11;;;;;;;5.32;1.52;;;;;;;17.17;64.58;101169.19;10394936;28;20127;-76
2022/09/25 11:46:50;;;;;;;4.38;0.63;;;;;;;18.26;63.76;101178.28;10375780;28;20058;-78
2022/09/25 11:52:04;;;;;;;5.32;1.08;;;;;;;18.45;62.18;101174.56;10396079;28;20520;-79
2022/09/25 11:57:16;;;;;;;6.75;1.63;;;;;;;17.75;62.24;101175.97;10391769;28;20061;-77
2022/09/25 12:02:44;;;;;;;5.10;0.77;;;;;;;17.27;62.76;101169.16;10380936;28;20467;-78
2022/09/25 12:08:14;;;;;;;5.03;0.68;;;;;;;16.95;62.93;101158.72;10395717;28;20104;-77
2022/09/25 12:13:31;;;;;;;7.22;1.02;;;;;;;17.35;62.71;101161.16;10381726;28;20095;-77
2022/09/25 12:19:08;;;;;;;5.88;0.73;;;;;;;17.57;62.52;101150.47;10374574;28;20073;-78
2022/09/25 12:24:34;;;;;;;6.57;0.90;;;;;;;17.94;61.63;101147.59;10396376;28;20045;-77
2022/09/25 12:30:03;;;;;;;8.05;0.93;;;;;;;17.55;61.16;101137.25;10389115;28;20054;-78
2022/09/25 12:35:21;;;;;;;7.32;0.80;;;;;;;17.70;61.21;101125.69;10375945;28;20120;-75
2022/09/25 12:40:55;;;;;;;5.95;1.10;;;;;;;17.10;61.62;101134.84;10392553;28;20141;-76
2022/09/25 12:46:18;;;;;;;5.95;1.25;;;;;;;16.71;63.07;101133.16;10369032;28;20168;-77
2022/09/25 12:51:33;;;;;;;4.22;0.70;;;;;;;16.60;64.14;101118.22;10394534;28;20081;-77
2022/09/25 12:56:50;;;;;;;10.48;0.90;;;;;;;16.42;65.06;101119.16;10378111;28;20076;-77
2022/09/25 13:02:25;;;;;;;2.80;0.70;;;;;;;16.44;65.30;101117.38;10390012;28;20077;-77
2022/09/25 13:07:48;;;;;;;3.58;0.98;;;;;;;16.32;65.09;101106.81;10397508;28;20754;-78
2022/09/25 13:12:54;;;;;;;6.22;0.93;;;;;;;16.10;65.49;101110.38;10395863;28;20049;-77
2022/09/25 13:17:57;;;;;;;6.28;1.15;;;;;;;15.90;65.66;101105.97;10397484;28;20056;-77
2022/09/25 13:23:13;;;;;;;3.35;0.70;;;;;;;15.73;66.55;101106.81;10349919;28;20093;-77
2022/09/25 13:28:22;;;;;;;5.45;0.88;;;;;;;15.87;67.09;101111.25;10369941;28;20053;-78
2022/09/25 13:33:26;;;;;;;9.70;0.80;;;;;;;16.04;66.85;101106.84;10374729;28;20136;-77
2022/09/25 13:44:30;;;;;;;7.38;1.10;;;;;;;15.64;67.33;101105.91;10397886;28;20496;-78
2022/09/25 13:49:34;;;;;;;3.25;0.68;;;;;;;15.76;67.56;101099.75;10367077;28;20052;-77
2022/09/25 13:54:35;;;;;;;3.47;0.80;;;;;;;16.22;66.60;101103.31;10393931;28;20041;-76
2022/09/25 13:59:37;;;;;;;6.35;0.70;;;;;;;16.31;66.26;101090.97;10364386;28;20050;-76
2022/09/25 14:04:46;;;;;;;3.63;0.90;;;;;;;16.09;65.60;101093.63;10369773;28;20046;-77
2022/09/25 14:09:53;;;;;;;9.10;1.00;;;;;;;15.81;65.77;101074.31;10380805;28;20053;-76
2022/09/25 14:15:04;;;;;;;8.70;1.00;;;;;;;15.54;66.38;101068.94;10388707;28;20045;-78
2022/09/25 14:20:28;;;;;;;3.47;0.75;;;;;;;15.53;66.44;101076.88;10392146;28;20755;-78
2022/09/25 14:25:37;;;;;;;8.20;0.98;;;;;;;15.95;66.33;101071.66;10365078;28;20046;-77
2022/09/25 14:30:38;;;;;;;9.68;1.00;;;;;;;16.24;65.51;101055.75;10372329;28;20058;-77
2022/09/25 14:35:52;;;;;;;3.85;1.20;;;;;;;16.50;65.14;101049.50;10374946;28;20053;-77
2022/09/25 14:41:14;;;;;;;4.72;1.10;;;;;;;16.74;64.00;101038.84;10382256;28;20049;-77
2022/09/25 14:46:19;;;;;;;5.97;1.05;;;;;;;16.82;64.28;101032.66;10378181;28;20095;-77
2022/09/25 14:51:26;;;;;;;4.60;0.65;;;;;;;16.59;63.78;101031.00;10391113;28;20054;-78
2022/09/25 14:56:32;;;;;;;7.25;0.60;;;;;;;16.17;63.74;101027.56;10389899;28;20117;-76
2022/09/25 15:01:33;;;;;;;8.57;1.15;;;;;;;15.82;64.43;101023.22;10390715;28;20115;-77
2022/09/25 15:06:39;;;;;;;5.03;0.90;;;;;;;15.50;64.97;101022.31;10367582;28;20050;-77
2022/09/25 15:11:42;;;;;;;6.65;0.95;;;;;;;15.29;65.70;101027.59;10389767;28;20130;-77
2022/09/25 15:22:18;;;;;;;2.85;0.85;;;;;;;14.92;66.28;101017.84;10378094;28;20566;-77
2022/09/25 15:27:21;;;;;;;3.83;0.93;;;;;;;14.74;67.00;101028.31;10341563;28;20457;-75
2022/09/25 15:32:29;;;;;;;6.18;1.75;;;;;;;14.62;67.93;101024.78;10384710;28;20057;-76
2022/09/25 15:37:31;;;;;;;9.18;1.63;;;;;;;14.43;68.41;101021.13;10373064;28;20060;-76
2022/09/25 15:42:34;;;;;;;8.93;1.33;;;;;;;14.35;68.14;101024.59;10376068;28;20456;-75
2022/09/25 15:47:35;;;;;;;5.05;0.88;;;;;;;14.29;68.06;101028.97;10392746;28;20053;-80
2022/09/25 15:52:38;;;;;;;8.60;1.40;;;;;;;14.19;68.05;101021.88;10387784;28;20053;-78
2022/09/25 15:57:40;;;;;;;6.57;1.42;;;;;;;14.15;68.26;101020.09;10397347;28;20049;-77
2022/09/25 16:08:23;;;;;;;11.35;2.25;;;;;;;14.13;68.81;101022.72;10397434;28;20075;-77
2022/09/25 16:13:26;;;;;;;8.98;2.60;;;;;;;14.11;68.87;101024.47;10392563;28;20053;-78
2022/09/25 16:18:35;;;;;;;8.13;2.00;;;;;;;13.97;68.96;101020.84;10377520;28;20057;-77
2022/09/25 16:23:38;;;;;;;9.30;1.67;;;;;;;13.89;69.47;101019.94;10303524;28;20140;-77
2022/09/25 16:28:52;;;;;;;6.15;1.20;;;;;;;13.85;69.95;101016.38;10286024;28;20143;-77
2022/09/25 16:33:56;;;;;;;4.68;1.30;;;;;;;13.88;70.39;101016.41;10286920;28;20046;-76
2022/09/25 16:39:08;;;;;;;8.30;1.63;;;;;;;14.00;70.62;101004.19;10261107;28;20049;-75
2022/09/25 16:44:20;;;;;;;6.45;2.42;;;;;;;13.93;70.64;101003.25;10278325;28;20049;-77
2022/09/25 16:49:25;;;;;;;11.45;2.05;;;;;;;13.78;71.16;101004.94;10283988;28;20058;-77
2022/09/25 16:54:30;;;;;;;8.60;2.55;;;;;;;13.63;71.23;101003.94;10267770;28;20545;-77
2022/09/25 16:59:32;;;;;;;5.00;1.45;;;;;;;13.40;71.96;101009.88;10257689;28;20502;-76
2022/09/25 17:04:37;;;;;;;7.20;1.55;;;;;;;13.17;72.65;101009.63;10292098;28;20110;-75
2022/09/25 17:09:39;;;;;;;10.70;2.03;;;;;;;12.94;73.58;101012.91;10225251;28;20508;-77
2022/09/25 17:14:41;;;;;;;14.02;2.42;;;;;;;12.68;74.47;101000.31;10292765;28;20110;-76
2022/09/25 17:19:43;;;;;;;10.27;3.05;;;;;;;12.46;75.41;100995.69;10384941;28;20054;-78
2022/09/25 17:24:45;;;;;;;9.07;2.78;;;;;;;12.26;76.17;100995.44;10394372;28;20477;-75
2022/09/25 17:29:47;;;;;;;6.68;2.67;;;;;;;12.05;76.94;100991.63;10372646;28;20049;-78
2022/09/25 17:34:49;;;;;;;10.77;2.83;;;;;;;11.82;77.78;100988.66;10356864;28;20053;-77
2022/09/25 17:39:51;;;;;;;8.73;2.72;;;;;;;11.62;78.23;100988.31;10392980;28;20493;-77
2022/09/25 17:44:53;;;;;;;6.90;2.47;;;;;;;11.47;78.81;100988.97;10384691;28;20045;-76
2022/09/25 17:49:56;;;;;;;6.28;2.20;;;;;;;11.35;79.20;100987.03;10375967;28;20045;-76
2022/09/25 17:54:58;;;;;;;7.50;2.35;;;;;;;11.25;79.42;100985.97;10387619;28;20060;-77
2022/09/25 18:00:01;;;;;;;7.00;2.00;;;;;;;11.14;79.85;100984.94;10378584;28;20049;-76
2022/09/25 18:05:06;;;;;;;6.38;1.98;;;;;;;10.99;80.17;100977.66;10370969;28;20588;-78
2022/09/25 18:10:11;;;;;;;6.00;1.60;;;;;;;10.84;80.50;100973.03;10357483;28;20077;-77
2022/09/25 18:15:12;;;;;;;6.10;1.98;;;;;;;10.71;80.84;100976.25;10377824;28;20049;-77
2022/09/25 18:25:36;;;;;;;;;;;;;;;10.38;81.53;100970.34;10383207;28;20432;-77
2022/09/25 18:30:38;;;;;;;5.00;2.03;;;;;;;10.23;81.75;100967.38;10371364;28;20590;-77
2022/09/25 18:35:41;;;;;;;3.50;2.00;;;;;;;10.09;82.45;100962.75;10370934;28;20513;-76
2022/09/25 18:40:44;;;;;;;4.85;2.22;;;;;;;9.96;82.53;100954.59;10354202;28;20057;-77
2022/09/25 18:45:49;;;;;;;7.55;2.30;;;;;;;9.86;82.64;100943.03;10370410;28;20144;-77
2022/09/25 18:50:51;;;;;;;7.80;2.72;;;;;;;9.72;83.24;100950.56;10393848;28;20172;-76
2022/09/25 18:55:57;;;;;;;10.63;3.05;;;;;;;9.60;83.46;100938.09;10384134;28;20041;-76
2022/09/25 19:00:59;;;;;;;8.38;3.30;;;;;;;9.50;83.75;100929.16;10380164;28;20058;-77
2022/09/25 19:06:02;;;;;;;7.63;2.88;;;;;;;9.36;83.91;100920.97;10388401;28;20400;-78
2022/09/25 19:11:13;;;;;;;7.97;2.83;;;;;;;9.25;84.40;100911.09;10389158;28;20061;-77
2022/09/25 19:16:17;;;;;;;10.50;3.80;;;;;;;9.13;84.80;100903.88;10371255;28;20107;-76
2022/09/25 19:21:21;;;;;;;9.00;2.70;;;;;;;8.94;84.89;100906.00;10387891;28;20053;-77
2022/09/25 19:26:25;;;;;;;6.60;2.50;;;;;;;8.89;85.54;100897.16;10380318;28;20559;-77
2022/09/25 19:31:28;;;;;;;6.47;2.88;;;;;;;8.81;85.46;100890.84;10364719;28;20511;-77
2022/09/25 19:36:32;;;;;;;9.52;3.22;;;;;;;8.81;85.74;100901.28;10387119;28;20045;-78
2022/09/25 19:41:36;;;;;;;8.07;2.67;;;;;;;8.67;86.20;100890.50;10358196;28;20104;-76
2022/09/25 19:46:40;;;;;;;10.25;2.65;;;;;;;8.59;86.15;100892.91;10392669;28;20053;-78
2022/09/25 19:51:42;;;;;;;9.88;2.90;;;;;;;8.49;86.52;100889.16;10392507;28;20064;-77
2022/09/25 19:56:44;;;;;;;5.72;2.50;;;;;;;8.39;86.80;100887.13;10373155;28;20091;-76
2022/09/25 20:01:46;;;;;;;12.90;3.08;;;;;;;8.33;87.09;100881.72;10394679;28;20429;-77
2022/09/25 20:06:48;;;;;;;10.77;3.80;;;;;;;8.26;87.20;100883.28;10391117;28;20054;-77
2022/09/25 20:11:50;;;;;;;8.75;2.90;;;;;;;8.24;87.14;100882.38;10380094;28;20079;-76
2022/09/25 20:16:53;;;;;;;15.65;4.43;;;;;;;8.19;87.57;100883.94;10394445;28;20053;-76
2022/09/25 20:21:55;;;;;;;6.32;2.47;;;;;;;8.14;87.79;100880.31;10381784;28;20137;-77
2022/09/25 20:26:56;;;;;;;15.77;3.17;;;;;;;8.19;87.96;100868.28;10389073;28;20852;-76
2022/09/25 20:31:58;;;;;;;9.23;2.50;;;;;;;8.23;88.15;100854.50;10391584;28;20057;-78
2022/09/25 20:37:00;;;;;;;9.27;2.53;;;;;;;8.21;88.38;100864.00;10383167;28;20045;-78
2022/09/25 20:42:01;;;;;;;7.45;2.10;;;;;;;8.19;88.48;100850.03;10375451;28;20057;-76
2022/09/25 20:47:03;;;;;;;12.80;2.67;;;;;;;8.20;88.67;100851.81;10392078;28;20414;-76
2022/09/25 20:52:05;;;;;;;5.55;2.35;;;;;;;8.21;88.80;100842.25;10384183;28;20469;-76
2022/09/25 20:57:08;;;;;;;6.15;2.53;;;;;;;8.15;88.95;100848.16;10355567;28;20607;-77
2022/09/25 21:02:09;;;;;;;8.57;2.60;;;;;;;8.11;88.97;100841.13;10391076;28;20111;-76
2022/09/25 21:07:11;;;;;;;6.00;2.22;;;;;;;8.09;89.18;100834.97;10399231;28;20053;-78
2022/09/25 21:12:17;;;;;;;5.53;2.13;;;;;;;8.07;89.27;100831.44;10396670;28;20085;-76
2022/09/25 21:17:19;;;;;;;7.32;2.25;;;;;;;8.03;89.25;100824.34;10390650;28;20046;-77
2022/09/25 21:22:21;;;;;;;8.27;2.55;;;;;;;7.99;89.47;100812.06;10381596;28;20053;-77
2022/09/25 21:27:22;;;;;;;5.13;2.13;;;;;;;7.97;89.29;100810.31;10380928;28;20050;-76
2022/09/25 21:32:24;;;;;;;4.35;2.20;;;;;;;7.93;89.69;100792.81;10390215;28;20049;-76
2022/09/25 21:37:26;;;;;;;5.25;2.22;;;;;;;7.89;89.74;100798.78;10378865;28;20437;-77
2022/09/25 21:42:28;;;;;;;6.95;2.38;;;;;;;7.82;89.88;100791.66;10364201;28;20072;-77
2022/09/25 21:47:30;;;;;;;6.15;2.35;;;;;;;7.75;89.78;100787.97;10382081;28;20539;-77
2022/09/25 21:52:31;;;;;;;9.75;2.42;;;;;;;7.73;89.86;100792.25;10369075;28;20053;-76
2022/09/25 21:57:33;;;;;;;5.80;2.55;;;;;;;7.71;89.97;100788.72;10375281;28;20053;-76
2022/09/25 22:02:35;;;;;;;4.30;2.45;;;;;;;7.71;90.06;100780.88;10376139;28;20107;-76
2022/09/25 22:07:37;;;;;;;11.73;2.83;;;;;;;7.82;90.24;100776.00;10385714;28;20141;-76
2022/09/25 22:12:38;;;;;;;10.90;2.70;;;;;;;7.87;90.30;100769.19;10397757;28;20053;-76
2022/09/25 22:17:40;;;;;;;14.45;2.90;;;;;;;7.91;90.52;100765.81;10388924;28;20198;-78
2022/09/25 22:22:42;;;;;;;6.45;2.42;;;;;;;7.95;90.74;100758.97;10394585;28;20076;-77
2022/09/25 22:27:43;;;;;;;9.70;3.05;;;;;;;7.97;90.69;100752.94;10390170;28;20072;-76
2022/09/25 22:32:45;;;;;;;8.20;2.90;;;;;;;8.03;90.72;100751.34;10387527;28;20057;-77
2022/09/25 22:37:47;;;;;;;9.20;2.78;;;;;;;8.05;91.10;100740.13;10394406;28;20053;-77
2022/09/25 22:42:49;;;;;;;9.35;2.53;;;;;;;8.06;91.16;100741.00;10388681;28;20081;-77
2022/09/25 22:47:51;;;;;;;7.43;2.85;;;;;;;8.05;91.29;100728.81;10372206;28;20144;-77
2022/09/25 22:52:53;;;;;;;7.25;3.45;;;;;;;8.06;91.49;100726.25;10385782;28;20060;-76
2022/09/25 22:57:58;;;;;;;10.57;2.90;;;;;;;8.10;91.62;100714.16;10386583;28;20408;-77
2022/09/25 23:03:00;;;;;;;9.10;3.03;;;;;;;8.11;91.81;100695.94;10394419;28;20050;-76
2022/09/25 23:08:02;;;;;;;5.30;2.65;;;;;;;8.11;91.85;100697.69;10394566;28;20061;-76
2022/09/25 23:13:05;;;;;;;10.10;3.40;;;;;;;8.15;91.97;100683.84;10381510;28;20545;-76
2022/09/25 23:18:07;;;;;;;8.25;2.60;;;;;;;8.16;92.10;100679.53;10392336;28;20057;-76
2022/09/25 23:23:09;;;;;;;6.75;2.92;;;;;;;8.13;92.10;100669.91;10390229;28;20060;-77
2022/09/25 23:28:10;;;;;;;7.53;3.03;;;;;;;8.13;92.23;100659.47;10389107;28;20054;-76
2022/09/25 23:33:12;;;;;;;5.70;2.85;;;;;;;8.09;92.21;100644.56;10383229;28;20045;-77
2022/09/25 23:38:14;;;;;;;7.93;2.90;;;;;;;8.06;92.29;100636.69;10384830;28;20052;-77
2022/09/25 23:43:16;;;;;;;9.23;2.92;;;;;;;8.03;92.31;100631.38;10353886;28;20049;-76
2022/09/25 23:48:18;;;;;;;11.82;3.35;;;;;;;8.03;92.42;100607.91;10389547;28;20038;-77
2022/09/25 23:53:20;;;;;;;6.50;2.72;;;;;;;7.99;92.29;100606.06;10384534;28;20432;-76
2022/09/25 23:58:22;;;;;;;10.95;3.17;;;;;;;7.99;92.33;100593.03;10391950;28;20567;-76
